Aeroporto :







RITROVATECI SU...

 
LOGIN :

Iscrizione | Disclaimer

   EN    FR    IT 

 









Sommario :    VFR   VFR Marginale   IFR   IFR Intensivo   IFR Molto Intensivo
Visibilità : 
Base nubi : 
>= 8 km
>= 3000ft
5 / 8 km
1000 / 3000 ft
1500m / 5 km
500 / 1000 ft
800 / 1500m
200 / 500 ft
< 800m
< 200 ft
Simboli :   Temporali  Nebbia  Neve Forte  Precipitazioni Forti  Vento > 20 kt






- Altitudine del aeroporto : 180 ft
- Codice IATA : YZV


CYZV - Sept-Iles

ULTIMO METAR :
  • 180200Z 32014G21KT 15SM SKC M21/M29 A3037 RMK SLP292

METARs OBSOLETI :
  • 180100Z 34012KT 15SM SKC M20/M29 A3037 RMK SLP293
  • 180000Z 32007KT 310V010 15SM SKC M20/M29 A3038 RMK SLP295

TAF TAF CYZV
Valido dal 18 a 00 ore il 19 a 00 ore UTC


172338Z 1800/1824 32008KT P6SM FEW040 FEW210 RMK NXT FCST BY 180600Z



MetMap, La meteo Aeronautica in un colpo d'occhio ! - Copyright ORBIFLY Dicembre 2007 - Disclaimer

ORBIFLY MET'MAP TEAM :

Programmazione e sviluppo : Alexandra Zaïnal
Concezione : Baudouin d'Aumeries
Aiuto per la programmazione : Marc-Olivier Méhu
Supporto tecnico e logistico : Manuel Goepfert
Aiuto per la traduzione : Arnaldo La Scala

Contatto : metmap@orbifly.com




FONTI E CREDITI :

   NOAA